createdAt,value
2022-10-29T00:02:51.772Z,13.44
2022-10-29T00:06:03.112Z,13.41
2022-10-29T00:09:15.357Z,13.40
2022-10-29T00:12:21.466Z,13.35
2022-10-29T00:15:27.678Z,13.29
2022-10-29T00:18:34.286Z,13.28
2022-10-29T00:21:41.936Z,13.27
2022-10-29T00:24:51.150Z,13.21
2022-10-29T00:27:59.879Z,13.19
2022-10-29T00:31:09.569Z,13.12
2022-10-29T00:34:16.243Z,13.10
2022-10-29T00:37:22.616Z,13.04
2022-10-29T00:40:32.586Z,13.05
2022-10-29T00:43:39.251Z,13.01
2022-10-29T00:46:53.163Z,12.99
2022-10-29T00:50:04.835Z,12.97
2022-10-29T00:53:22.624Z,12.98
2022-10-29T00:56:44.489Z,12.96
2022-10-29T00:59:54.204Z,12.96
2022-10-29T01:02:57.345Z,12.96
2022-10-29T01:06:01.981Z,12.96
2022-10-29T01:09:04.791Z,12.93
2022-10-29T01:12:21.764Z,12.93
2022-10-29T01:15:31.780Z,12.99
2022-10-29T01:18:43.267Z,12.97
2022-10-29T01:21:50.080Z,12.98
2022-10-29T01:25:20.969Z,13.02
2022-10-29T01:28:38.796Z,13.01
2022-10-29T01:31:51.298Z,13.09
2022-10-29T01:35:01.695Z,13.09
2022-10-29T01:38:15.430Z,13.08
2022-10-29T01:41:24.648Z,13.10
2022-10-29T01:44:34.855Z,13.15
2022-10-29T01:47:43.481Z,13.17
2022-10-29T01:50:50.806Z,13.14
2022-10-29T01:53:54.872Z,13.10
2022-10-29T01:56:58.496Z,13.06
2022-10-29T02:00:04.801Z,13.07
2022-10-29T02:03:21.665Z,13.06
2022-10-29T02:06:37.416Z,13.09
2022-10-29T02:09:53.936Z,13.09
2022-10-29T02:12:58.841Z,13.05
2022-10-29T02:16:07.535Z,13.05
2022-10-29T02:19:11.551Z,13.07
2022-10-29T02:22:14.220Z,13.09
2022-10-29T02:25:18.269Z,13.11
2022-10-29T02:31:28.815Z,13.09
2022-10-29T02:34:32.814Z,13.13
2022-10-29T02:37:35.503Z,13.14
2022-10-29T02:40:38.160Z,13.17
2022-10-29T02:43:40.791Z,13.20
2022-10-29T02:46:43.380Z,13.20
2022-10-29T02:49:47.357Z,13.22
2022-10-29T02:52:50.031Z,13.24
2022-10-29T02:55:52.654Z,13.21
2022-10-29T02:58:55.322Z,13.21
2022-10-29T03:01:58.038Z,13.24
2022-10-29T03:05:02.313Z,13.21
2022-10-29T03:08:05.291Z,13.25
2022-10-29T03:11:08.339Z,13.25
2022-10-29T03:14:10.975Z,13.23
2022-10-29T03:17:13.604Z,13.24
2022-10-29T03:20:18.188Z,13.27
2022-10-29T03:23:20.859Z,13.24
2022-10-29T03:26:23.528Z,13.25
2022-10-29T03:29:26.108Z,13.25
2022-10-29T03:32:28.733Z,13.26
2022-10-29T03:35:32.977Z,13.27
2022-10-29T03:38:36.117Z,13.27
2022-10-29T03:41:38.751Z,13.25
2022-10-29T03:44:41.444Z,13.26
2022-10-29T03:47:44.070Z,13.24
2022-10-29T03:50:55.003Z,13.20
2022-10-29T03:53:57.623Z,13.17
2022-10-29T03:57:00.326Z,13.15
2022-10-29T04:00:04.776Z,13.15
2022-10-29T04:03:07.493Z,13.13
2022-10-29T04:06:16.341Z,13.14
2022-10-29T04:09:19.011Z,13.16
2022-10-29T04:12:21.672Z,13.17
2022-10-29T04:15:24.300Z,13.19
2022-10-29T04:18:26.947Z,13.21
2022-10-29T04:23:54.386Z,13.21
2022-10-29T04:28:46.098Z,13.15
2022-10-29T04:31:39.700Z,13.16
2022-10-29T04:34:42.379Z,13.14
2022-10-29T04:37:46.368Z,13.14
2022-10-29T04:40:49.552Z,13.12
2022-10-29T04:43:52.179Z,13.12
2022-10-29T04:46:54.825Z,13.07
2022-10-29T04:49:57.417Z,13.00
2022-10-29T04:53:02.063Z,12.99
2022-10-29T04:56:05.661Z,12.95
2022-10-29T04:59:08.319Z,12.93
2022-10-29T05:02:11.535Z,12.95
2022-10-29T05:05:14.718Z,12.91
2022-10-29T05:08:18.953Z,12.91
2022-10-29T05:11:22.000Z,12.90
2022-10-29T05:14:24.626Z,12.88
2022-10-29T05:17:27.285Z,12.85
2022-10-29T05:20:30.428Z,12.81
2022-10-29T05:23:34.541Z,12.73
2022-10-29T05:26:37.139Z,12.70
2022-10-29T05:29:39.747Z,12.67
2022-10-29T05:32:42.378Z,12.64
2022-10-29T05:35:45.574Z,12.64
2022-10-29T05:38:49.543Z,12.59
2022-10-29T05:41:52.301Z,12.56
2022-10-29T05:44:54.902Z,12.53
2022-10-29T05:47:58.513Z,12.52
2022-10-29T05:51:01.233Z,12.44
2022-10-29T05:54:06.044Z,12.43
2022-10-29T05:57:08.672Z,12.40
2022-10-29T06:00:12.252Z,12.42
2022-10-29T06:03:17.482Z,12.40
2022-10-29T06:06:20.310Z,12.43
2022-10-29T06:09:24.352Z,12.42
2022-10-29T06:12:30.019Z,12.37
2022-10-29T06:15:35.028Z,12.32
2022-10-29T06:18:37.624Z,12.32
2022-10-29T06:21:40.281Z,12.35
2022-10-29T06:24:44.312Z,12.34
2022-10-29T06:27:46.930Z,12.34
2022-10-29T06:30:51.283Z,12.37
2022-10-29T06:33:55.688Z,12.37
2022-10-29T06:36:58.659Z,12.41
2022-10-29T06:40:02.863Z,12.44
2022-10-29T06:43:07.379Z,12.40
2022-10-29T06:46:10.086Z,12.38
2022-10-29T06:49:12.703Z,12.40
2022-10-29T06:52:15.358Z,12.46
2022-10-29T06:55:19.751Z,12.47
2022-10-29T06:58:22.802Z,12.50
2022-10-29T07:01:30.762Z,12.53
2022-10-29T07:04:34.491Z,12.60
2022-10-29T07:07:37.126Z,12.68
2022-10-29T07:10:41.596Z,12.71
2022-10-29T07:13:44.454Z,12.70
2022-10-29T07:16:47.685Z,12.79
2022-10-29T07:19:50.284Z,12.85
2022-10-29T07:22:52.977Z,12.94
2022-10-29T07:25:57.057Z,13.03
2022-10-29T07:28:59.725Z,13.09
2022-10-29T07:32:02.377Z,13.17
2022-10-29T07:35:05.532Z,13.31
2022-10-29T07:38:11.069Z,13.48
2022-10-29T07:41:15.393Z,13.63
2022-10-29T07:44:18.018Z,13.80
2022-10-29T07:47:20.731Z,13.96
2022-10-29T07:50:23.451Z,14.13
2022-10-29T07:53:26.334Z,14.31
2022-10-29T07:56:30.300Z,14.50
2022-10-29T07:59:32.944Z,14.67
2022-10-29T08:02:35.516Z,14.81
2022-10-29T08:05:38.291Z,15.00
2022-10-29T08:08:41.035Z,15.14
2022-10-29T08:14:49.612Z,15.44
2022-10-29T08:17:52.661Z,15.57
2022-10-29T08:20:55.321Z,15.67
2022-10-29T08:23:58.017Z,15.75
2022-10-29T08:27:01.969Z,15.81
2022-10-29T08:30:05.631Z,15.93
2022-10-29T08:33:58.315Z,15.99
2022-10-29T08:37:00.930Z,16.10
2022-10-29T08:40:03.584Z,16.21
2022-10-29T08:43:35.750Z,16.28
2022-10-29T08:46:45.033Z,16.34
2022-10-29T08:49:52.536Z,16.40
2022-10-29T08:53:21.828Z,16.46
2022-10-29T08:56:23.323Z,16.51
2022-10-29T08:59:33.977Z,16.56
2022-10-29T09:02:36.612Z,16.65
2022-10-29T09:05:51.564Z,16.74
2022-10-29T09:09:11.774Z,16.87
2022-10-29T09:12:40.917Z,17.03
2022-10-29T09:16:02.118Z,17.19
2022-10-29T09:19:31.237Z,17.36
2022-10-29T09:22:42.531Z,17.86
2022-10-29T09:25:49.995Z,19.80
2022-10-29T09:29:03.720Z,21.62
2022-10-29T09:32:13.220Z,23.05
2022-10-29T09:35:18.218Z,23.93
2022-10-29T09:38:25.029Z,24.53
2022-10-29T09:41:32.063Z,24.74
2022-10-29T09:44:39.344Z,25.43
2022-10-29T09:47:49.921Z,25.87
2022-10-29T09:51:02.745Z,25.43
2022-10-29T09:54:06.093Z,24.36
2022-10-29T09:57:17.604Z,23.41
2022-10-29T10:00:23.518Z,22.79
2022-10-29T10:03:30.879Z,22.52
2022-10-29T10:07:04.452Z,22.11
2022-10-29T10:10:09.143Z,21.86
2022-10-29T10:13:17.137Z,21.63
2022-10-29T10:16:25.073Z,21.49
2022-10-29T10:19:30.384Z,21.39
2022-10-29T10:22:33.336Z,21.40
2022-10-29T10:25:39.002Z,21.37
2022-10-29T10:28:41.673Z,21.31
2022-10-29T10:31:46.295Z,21.27
2022-10-29T10:34:51.272Z,21.28
2022-10-29T10:37:54.384Z,21.33
2022-10-29T10:41:02.193Z,21.34
2022-10-29T10:44:06.764Z,21.31
2022-10-29T10:47:09.557Z,21.38
2022-10-29T10:50:19.325Z,21.37
2022-10-29T10:53:24.020Z,21.40
2022-10-29T10:56:26.711Z,21.39
2022-10-29T10:59:48.943Z,21.44
2022-10-29T11:02:57.193Z,21.46
2022-10-29T11:06:07.804Z,21.54
2022-10-29T11:09:19.555Z,21.61
2022-10-29T11:12:31.658Z,21.71
2022-10-29T11:15:40.045Z,21.78
2022-10-29T11:18:50.009Z,21.79
2022-10-29T11:22:02.536Z,21.84
2022-10-29T11:25:18.667Z,21.88
2022-10-29T11:28:27.127Z,21.96
2022-10-29T11:31:38.187Z,22.03
2022-10-29T11:34:50.279Z,22.07
2022-10-29T11:38:01.774Z,22.17
2022-10-29T11:41:23.517Z,22.26
2022-10-29T11:44:27.283Z,22.36
2022-10-29T11:47:49.683Z,22.35
2022-10-29T11:51:00.460Z,22.36
2022-10-29T11:54:12.909Z,22.43
2022-10-29T11:57:21.246Z,22.57
2022-10-29T12:00:25.112Z,22.65
2022-10-29T12:03:48.168Z,22.74
2022-10-29T12:07:03.622Z,22.84
2022-10-29T12:10:34.753Z,22.91
2022-10-29T12:13:50.304Z,23.02
2022-10-29T12:17:05.142Z,23.05
2022-10-29T12:20:22.070Z,23.19
2022-10-29T12:23:38.007Z,23.40
2022-10-29T12:26:47.252Z,23.57
2022-10-29T12:29:59.503Z,23.69
2022-10-29T12:33:11.499Z,23.73
2022-10-29T12:36:21.348Z,23.84
2022-10-29T12:39:30.152Z,23.87
2022-10-29T12:42:35.452Z,23.87
2022-10-29T12:46:14.287Z,23.89
2022-10-29T12:49:15.268Z,23.99
2022-10-29T12:52:24.216Z,24.02
2022-10-29T12:55:27.383Z,24.18
2022-10-29T12:58:49.773Z,24.57
2022-10-29T13:05:22.656Z,24.49
2022-10-29T13:08:35.112Z,24.31
2022-10-29T13:11:52.788Z,24.10
2022-10-29T13:15:12.245Z,23.94
2022-10-29T13:18:28.377Z,23.67
2022-10-29T13:22:14.051Z,23.54
2022-10-29T13:25:44.486Z,23.49
2022-10-29T13:29:12.539Z,23.37
2022-10-29T13:32:37.535Z,23.25
2022-10-29T13:35:47.115Z,23.17
2022-10-29T13:39:07.922Z,23.09
2022-10-29T13:42:16.306Z,23.14
2022-10-29T13:45:26.470Z,23.11
2022-10-29T13:48:37.781Z,23.08
2022-10-29T13:51:53.807Z,23.00
2022-10-29T13:55:07.905Z,22.88
2022-10-29T13:58:19.427Z,22.81
2022-10-29T14:01:29.039Z,22.68
2022-10-29T14:04:42.684Z,22.67
2022-10-29T14:08:05.425Z,22.68
2022-10-29T14:11:33.873Z,22.65
2022-10-29T14:15:14.615Z,22.69
2022-10-29T14:26:57.832Z,22.53
2022-10-29T14:30:24.212Z,22.41
2022-10-29T14:33:43.127Z,22.30
2022-10-29T14:37:05.588Z,22.17
2022-10-29T14:40:40.965Z,22.05
2022-10-29T14:44:15.089Z,21.94
2022-10-29T14:47:33.190Z,21.79
2022-10-29T14:50:56.791Z,21.64
2022-10-29T14:54:18.008Z,21.47
2022-10-29T14:57:35.745Z,21.30
2022-10-29T15:01:10.232Z,21.15
2022-10-29T15:04:40.055Z,20.96
2022-10-29T15:07:52.864Z,20.81
2022-10-29T15:11:10.628Z,20.65
2022-10-29T15:14:39.225Z,20.50
2022-10-29T15:17:57.747Z,20.33
2022-10-29T15:21:11.245Z,20.20
2022-10-29T15:24:28.884Z,20.07
2022-10-29T15:27:37.643Z,19.96
2022-10-29T15:30:46.975Z,19.85
2022-10-29T15:34:01.127Z,19.74
2022-10-29T15:37:30.040Z,19.63
2022-10-29T15:40:40.166Z,19.55
2022-10-29T15:43:53.731Z,19.43
2022-10-29T15:47:03.653Z,19.36
2022-10-29T15:50:13.089Z,19.25
2022-10-29T15:53:20.281Z,19.16
2022-10-29T15:56:27.909Z,19.07
2022-10-29T15:59:38.169Z,18.96
2022-10-29T16:02:46.544Z,18.84
2022-10-29T16:05:56.602Z,18.73
2022-10-29T16:09:05.836Z,18.67
2022-10-29T16:12:16.577Z,18.58
2022-10-29T16:18:35.671Z,18.40
2022-10-29T16:21:43.775Z,18.35
2022-10-29T16:24:49.704Z,18.33
2022-10-29T16:27:59.078Z,18.30
2022-10-29T16:31:19.171Z,18.25
2022-10-29T16:34:30.836Z,18.17
2022-10-29T16:37:54.146Z,18.10
2022-10-29T16:41:03.151Z,18.03
2022-10-29T16:44:10.859Z,17.95
2022-10-29T16:47:25.193Z,17.90
2022-10-29T16:50:37.841Z,17.82
2022-10-29T16:53:52.385Z,17.78
2022-10-29T16:57:05.963Z,17.70
2022-10-29T17:00:20.262Z,17.64
2022-10-29T17:03:47.220Z,17.60
2022-10-29T17:06:59.971Z,17.54
2022-10-29T17:10:26.103Z,17.48
2022-10-29T17:13:41.204Z,17.44
2022-10-29T17:21:01.026Z,17.32
2022-10-29T17:24:25.990Z,17.30
2022-10-29T17:27:34.320Z,17.26
2022-10-29T17:30:59.145Z,17.23
2022-10-29T17:37:53.594Z,17.19
2022-10-29T17:41:11.386Z,17.13
2022-10-29T17:44:22.818Z,17.09
2022-10-29T17:47:30.034Z,17.05
2022-10-29T17:54:05.931Z,16.99
2022-10-29T17:57:18.063Z,16.94
2022-10-29T18:00:27.653Z,16.90
2022-10-29T18:03:41.895Z,16.83
2022-10-29T18:06:47.992Z,16.81
2022-10-29T18:09:56.677Z,16.78
2022-10-29T18:13:05.888Z,16.75
2022-10-29T18:16:14.533Z,16.71
2022-10-29T18:19:22.851Z,16.72
2022-10-29T18:22:31.886Z,16.70
2022-10-29T18:25:41.950Z,16.71
2022-10-29T18:28:53.512Z,16.69
2022-10-29T18:32:02.024Z,16.66
2022-10-29T18:35:08.725Z,16.62
2022-10-29T18:38:16.223Z,16.59
2022-10-29T18:41:23.202Z,16.54
2022-10-29T18:44:31.609Z,16.53
2022-10-29T18:47:37.804Z,16.53
2022-10-29T18:50:43.543Z,16.48
2022-10-29T18:53:49.511Z,16.46
2022-10-29T18:56:56.836Z,16.43
2022-10-29T19:00:03.917Z,16.36
2022-10-29T19:03:10.231Z,16.32
2022-10-29T19:06:20.538Z,16.28
2022-10-29T19:09:26.783Z,16.25
2022-10-29T19:12:34.362Z,16.22
2022-10-29T19:15:44.740Z,16.19
2022-10-29T19:22:34.002Z,16.13
2022-10-29T19:29:22.154Z,16.09
2022-10-29T19:32:47.549Z,16.06
2022-10-29T19:36:10.479Z,16.07
2022-10-29T19:39:34.224Z,16.02
2022-10-29T19:42:57.965Z,16.00
2022-10-29T19:46:29.101Z,15.98
2022-10-29T19:49:46.350Z,15.91
2022-10-29T19:56:45.260Z,15.84
2022-10-29T20:03:31.456Z,15.78
2022-10-29T20:06:53.790Z,15.69
2022-10-29T20:10:02.320Z,15.65
2022-10-29T20:13:20.561Z,15.60
2022-10-29T20:16:34.263Z,15.53
2022-10-29T20:19:43.977Z,15.52
2022-10-29T20:23:09.985Z,15.48
2022-10-29T20:26:17.657Z,15.46
2022-10-29T20:29:36.927Z,15.44
2022-10-29T20:36:27.365Z,15.42
2022-10-29T20:39:40.867Z,15.44
2022-10-29T20:42:48.444Z,15.42
2022-10-29T20:46:03.841Z,15.36
2022-10-29T20:49:20.777Z,15.31
2022-10-29T20:52:28.239Z,15.29
2022-10-29T20:55:36.950Z,15.24
2022-10-29T20:59:02.339Z,15.22
2022-10-29T21:02:14.294Z,15.17
2022-10-29T21:05:27.066Z,15.12
2022-10-29T21:08:44.493Z,15.10
2022-10-29T21:11:58.505Z,15.08
2022-10-29T21:15:09.487Z,15.07
2022-10-29T21:18:24.512Z,15.00
2022-10-29T21:21:37.164Z,14.98
2022-10-29T21:24:45.539Z,14.95
2022-10-29T21:28:01.680Z,14.95
2022-10-29T21:34:30.729Z,14.91
2022-10-29T21:37:56.587Z,14.91
2022-10-29T21:41:10.536Z,14.88
2022-10-29T21:44:21.287Z,14.84
2022-10-29T21:47:36.895Z,14.82
2022-10-29T21:50:50.532Z,14.75
2022-10-29T21:54:07.555Z,14.71
2022-10-29T21:57:15.156Z,14.73
2022-10-29T22:00:31.965Z,14.72
2022-10-29T22:03:48.073Z,14.74
2022-10-29T22:07:01.687Z,14.70
2022-10-29T22:10:16.116Z,14.66
2022-10-29T22:13:24.075Z,14.66
2022-10-29T22:16:47.708Z,14.61
2022-10-29T22:19:59.895Z,14.55
2022-10-29T22:23:10.604Z,14.53
2022-10-29T22:26:24.376Z,14.51
2022-10-29T22:29:43.107Z,14.54
2022-10-29T22:33:09.393Z,14.50
2022-10-29T22:36:24.837Z,14.45
2022-10-29T22:39:34.208Z,14.42
2022-10-29T22:42:44.577Z,14.45
2022-10-29T22:45:57.096Z,14.49
2022-10-29T22:49:12.351Z,14.48
2022-10-29T22:52:25.467Z,14.51
2022-10-29T22:55:34.561Z,14.45
2022-10-29T22:58:40.695Z,14.43
2022-10-29T23:01:52.820Z,14.44
2022-10-29T23:05:01.051Z,14.43
2022-10-29T23:08:12.931Z,14.41
2022-10-29T23:11:28.852Z,14.38
2022-10-29T23:14:40.932Z,14.37
2022-10-29T23:17:46.323Z,14.40
2022-10-29T23:21:03.622Z,14.41
2022-10-29T23:24:18.081Z,14.38
2022-10-29T23:27:36.394Z,14.38
2022-10-29T23:31:04.408Z,14.38
2022-10-29T23:34:15.825Z,14.38
2022-10-29T23:41:26.749Z,14.38
2022-10-29T23:44:40.866Z,14.38
2022-10-29T23:47:57.065Z,14.36
2022-10-29T23:51:16.684Z,14.33
2022-10-29T23:54:35.704Z,14.28
2022-10-29T23:57:54.726Z,14.25
